createdAt,value
2022-10-08T00:01:24.989Z,11.63
2022-10-08T00:06:31.932Z,14.98
2022-10-08T00:11:38.440Z,18.58
2022-10-08T00:16:42.854Z,10.60
2022-10-08T00:21:50.954Z,11.00
2022-10-08T00:26:54.977Z,16.10
2022-10-08T00:31:59.110Z,10.98
2022-10-08T00:37:04.365Z,21.08
2022-10-08T00:42:08.439Z,15.38
2022-10-08T00:47:19.280Z,10.07
2022-10-08T00:52:27.982Z,14.43
2022-10-08T00:57:32.344Z,15.98
2022-10-08T01:02:36.056Z,14.05
2022-10-08T01:07:49.259Z,14.35
2022-10-08T01:13:05.380Z,18.90
2022-10-08T01:18:20.869Z,14.07
2022-10-08T01:23:42.262Z,15.27
2022-10-08T01:28:53.077Z,13.75
2022-10-08T01:34:01.341Z,12.75
2022-10-08T01:39:10.218Z,11.85
2022-10-08T01:44:20.908Z,13.57
2022-10-08T01:49:29.134Z,13.23
2022-10-08T01:54:34.317Z,13.38
2022-10-08T01:59:43.881Z,10.65
2022-10-08T02:04:49.193Z,6.95
2022-10-08T02:09:54.834Z,8.30
2022-10-08T02:15:00.908Z,9.93
2022-10-08T02:20:08.802Z,7.87
2022-10-08T02:25:17.565Z,10.70
2022-10-08T02:30:24.495Z,6.32
2022-10-08T02:35:34.608Z,5.82
2022-10-08T02:40:43.577Z,8.30
2022-10-08T02:45:53.960Z,6.43
2022-10-08T02:50:59.788Z,8.18
2022-10-08T02:56:09.428Z,10.75
2022-10-08T03:01:18.110Z,3.87
2022-10-08T03:06:22.698Z,7.97
2022-10-08T03:11:26.892Z,6.43
2022-10-08T03:16:38.911Z,7.05
2022-10-08T03:21:44.512Z,6.95
2022-10-08T03:26:48.219Z,7.65
2022-10-08T03:31:53.271Z,7.65
2022-10-08T03:36:56.926Z,8.10
2022-10-08T03:42:00.659Z,8.88
2022-10-08T03:47:05.846Z,4.65
2022-10-08T03:52:09.748Z,12.40
2022-10-08T03:57:13.515Z,12.27
2022-10-08T04:02:18.632Z,15.90
2022-10-08T04:07:22.400Z,15.10
2022-10-08T04:12:26.198Z,18.42
2022-10-08T04:17:31.261Z,27.30
2022-10-08T04:22:35.415Z,34.20
2022-10-08T04:27:39.115Z,35.03
2022-10-08T04:32:44.990Z,37.20
2022-10-08T04:37:48.928Z,48.35
2022-10-08T04:42:53.007Z,37.78
2022-10-08T04:47:58.013Z,45.65
2022-10-08T04:53:01.730Z,44.17
2022-10-08T04:58:05.437Z,48.08
2022-10-08T05:03:10.649Z,47.05
2022-10-08T05:08:14.412Z,43.33
2022-10-08T05:13:18.129Z,37.80
2022-10-08T05:18:23.508Z,44.88
2022-10-08T05:23:27.252Z,41.65
2022-10-08T05:28:30.999Z,39.30
2022-10-08T05:33:37.235Z,37.58
2022-10-08T05:38:43.548Z,34.42
2022-10-08T05:43:47.699Z,40.90
2022-10-08T05:48:54.063Z,40.72
2022-10-08T05:54:00.244Z,36.13
2022-10-08T05:59:04.017Z,32.45
2022-10-08T06:04:11.328Z,29.58
2022-10-08T06:09:17.082Z,27.37
2022-10-08T06:14:21.376Z,30.00
2022-10-08T06:19:26.506Z,31.85
2022-10-08T06:24:30.220Z,28.08
2022-10-08T06:29:33.983Z,27.87
2022-10-08T06:34:39.045Z,31.58
2022-10-08T06:39:47.528Z,28.58
2022-10-08T06:44:52.074Z,22.20
2022-10-08T06:49:57.157Z,20.77
2022-10-08T06:55:01.052Z,21.08
2022-10-08T07:00:05.284Z,20.88
2022-10-08T07:05:10.926Z,18.02
2022-10-08T07:10:18.375Z,14.60
2022-10-08T07:15:22.457Z,14.67
2022-10-08T07:20:27.604Z,13.95
2022-10-08T07:25:31.506Z,17.15
2022-10-08T07:30:37.634Z,17.42
2022-10-08T07:35:42.792Z,13.62
2022-10-08T07:40:48.573Z,12.73
2022-10-08T07:45:52.375Z,11.52
2022-10-08T07:50:57.519Z,14.70
2022-10-08T07:56:01.377Z,10.70
2022-10-08T08:01:09.103Z,12.70
2022-10-08T08:06:16.042Z,11.17
2022-10-08T08:11:21.939Z,13.07
2022-10-08T08:16:27.835Z,12.65
2022-10-08T08:21:34.779Z,8.55
2022-10-08T08:26:40.613Z,13.68
2022-10-08T08:31:46.118Z,9.35
2022-10-08T08:36:53.672Z,10.48
2022-10-08T08:42:17.548Z,12.60
2022-10-08T08:47:25.077Z,7.62
2022-10-08T08:52:34.935Z,9.23
2022-10-08T08:57:47.137Z,10.18
2022-10-08T09:02:57.252Z,8.25
2022-10-08T09:08:07.652Z,9.50
2022-10-08T09:13:18.969Z,9.88
2022-10-08T09:18:24.700Z,8.40
2022-10-08T09:23:29.865Z,12.32
2022-10-08T09:28:45.851Z,6.75
2022-10-08T09:34:13.193Z,7.35
2022-10-08T09:39:21.181Z,7.45
2022-10-08T09:44:24.906Z,6.30
2022-10-08T09:49:32.314Z,9.40
2022-10-08T09:54:46.114Z,16.00
2022-10-08T09:59:53.492Z,5.35
2022-10-08T10:04:57.970Z,6.03
2022-10-08T10:10:04.210Z,2.80
2022-10-08T10:15:16.526Z,10.27
2022-10-08T10:20:25.091Z,3.12
2022-10-08T10:25:38.792Z,4.78
2022-10-08T10:30:52.099Z,9.07
2022-10-08T10:35:59.302Z,5.00
2022-10-08T10:41:17.010Z,6.03
2022-10-08T10:46:27.942Z,9.85
2022-10-08T10:51:53.320Z,4.40
2022-10-08T10:57:04.416Z,6.00
2022-10-08T11:02:16.300Z,4.53
2022-10-08T11:07:44.555Z,7.57
2022-10-08T11:12:57.781Z,5.07
2022-10-08T11:18:18.397Z,5.25
2022-10-08T11:23:40.957Z,5.05
2022-10-08T11:28:53.641Z,4.22
2022-10-08T11:33:58.257Z,3.80
2022-10-08T11:39:11.472Z,4.95
2022-10-08T11:44:18.273Z,3.60
2022-10-08T11:49:54.600Z,5.22
2022-10-08T11:55:00.997Z,8.68
2022-10-08T12:00:12.292Z,4.50
2022-10-08T12:05:33.177Z,3.62
2022-10-08T12:10:38.768Z,5.72
2022-10-08T12:16:08.027Z,5.12
2022-10-08T12:21:51.775Z,4.40
2022-10-08T12:27:32.987Z,3.28
2022-10-08T12:32:58.977Z,6.85
2022-10-08T12:38:27.734Z,5.37
2022-10-08T12:43:42.033Z,3.55
2022-10-08T12:48:52.687Z,3.60
2022-10-08T12:53:56.975Z,3.12
2022-10-08T12:59:04.326Z,3.20
2022-10-08T13:04:18.776Z,3.92
2022-10-08T13:09:29.539Z,3.60
2022-10-08T13:14:35.879Z,4.45
2022-10-08T13:19:41.746Z,5.97
2022-10-08T13:24:45.670Z,5.10
2022-10-08T13:29:49.479Z,3.42
2022-10-08T13:34:58.269Z,6.10
2022-10-08T13:40:04.498Z,4.43
2022-10-08T13:45:16.745Z,6.12
2022-10-08T13:50:23.344Z,9.27
2022-10-08T13:55:29.031Z,5.87
2022-10-08T14:00:34.484Z,6.37
2022-10-08T14:05:43.908Z,5.47
2022-10-08T14:10:47.715Z,5.62
2022-10-08T14:15:51.633Z,3.80
2022-10-08T14:20:56.969Z,8.82
2022-10-08T14:26:00.696Z,8.02
2022-10-08T14:31:04.562Z,6.78
2022-10-08T14:36:17.164Z,6.80
2022-10-08T14:41:21.255Z,5.07
2022-10-08T14:46:25.548Z,6.20
2022-10-08T14:51:37.337Z,2.83
2022-10-08T14:56:42.622Z,3.30
2022-10-08T15:01:46.653Z,4.43
2022-10-08T15:06:51.781Z,3.33
2022-10-08T15:11:55.539Z,4.05
2022-10-08T15:16:59.259Z,2.03
2022-10-08T15:22:04.389Z,2.58
2022-10-08T15:27:08.121Z,5.78
2022-10-08T15:32:11.981Z,4.45
2022-10-08T15:37:17.196Z,5.07
2022-10-08T15:42:20.950Z,4.57
2022-10-08T15:47:24.729Z,5.93
2022-10-08T15:52:29.857Z,9.40
2022-10-08T15:57:33.667Z,3.95
2022-10-08T16:02:37.405Z,8.85
2022-10-08T16:07:42.520Z,10.02
2022-10-08T16:12:46.642Z,3.35
2022-10-08T16:17:51.872Z,7.28
2022-10-08T16:22:57.094Z,6.20
2022-10-08T16:28:00.860Z,4.82
2022-10-08T16:33:04.964Z,7.15
2022-10-08T16:38:10.151Z,6.00
2022-10-08T16:43:14.072Z,8.10
2022-10-08T16:48:17.891Z,6.12
2022-10-08T16:53:23.095Z,8.35
2022-10-08T16:58:26.962Z,8.27
2022-10-08T17:03:30.729Z,6.12
2022-10-08T17:08:35.937Z,9.00
2022-10-08T17:13:42.298Z,7.07
2022-10-08T17:18:46.292Z,11.48
2022-10-08T17:23:51.589Z,10.95
2022-10-08T17:28:57.208Z,9.60
2022-10-08T17:34:01.359Z,9.30
2022-10-08T17:39:08.478Z,11.57
2022-10-08T17:44:12.711Z,12.25
2022-10-08T17:49:18.189Z,11.45
2022-10-08T17:54:23.967Z,7.18
2022-10-08T17:59:27.717Z,11.38
2022-10-08T18:04:31.546Z,9.80
2022-10-08T18:09:37.136Z,9.57
2022-10-08T18:14:41.019Z,11.45
2022-10-08T18:19:45.228Z,5.12
2022-10-08T18:24:50.640Z,8.23
2022-10-08T18:29:54.368Z,7.40
2022-10-08T18:34:58.195Z,9.45
2022-10-08T18:40:03.424Z,6.50
2022-10-08T18:45:08.131Z,10.40
2022-10-08T18:50:11.803Z,8.13
2022-10-08T18:55:17.047Z,9.13
2022-10-08T19:00:20.906Z,9.45
2022-10-08T19:05:24.840Z,7.70
2022-10-08T19:10:30.030Z,9.82
2022-10-08T19:15:36.653Z,10.80
2022-10-08T19:20:40.741Z,15.13
2022-10-08T19:25:45.907Z,5.55
2022-10-08T19:30:49.703Z,8.43
2022-10-08T19:35:53.530Z,9.35
2022-10-08T19:40:58.589Z,10.55
2022-10-08T19:46:03.339Z,14.90
2022-10-08T19:51:09.015Z,17.02
2022-10-08T19:56:14.933Z,11.95
2022-10-08T20:01:21.467Z,17.98
2022-10-08T20:06:26.836Z,17.25
2022-10-08T20:11:33.503Z,12.90
2022-10-08T20:16:39.699Z,12.80
2022-10-08T20:21:43.574Z,11.68
2022-10-08T20:26:49.977Z,12.00
2022-10-08T20:31:55.790Z,14.85
2022-10-08T20:37:01.670Z,13.02
2022-10-08T20:42:06.910Z,9.73
2022-10-08T20:47:10.694Z,13.40
2022-10-08T20:52:14.570Z,14.87
2022-10-08T20:57:19.785Z,10.55
2022-10-08T21:02:23.562Z,7.68
2022-10-08T21:07:27.372Z,12.48
2022-10-08T21:12:33.430Z,12.65
2022-10-08T21:17:37.578Z,10.50
2022-10-08T21:22:41.497Z,11.88
2022-10-08T21:27:47.282Z,11.23
2022-10-08T21:32:51.165Z,13.68
2022-10-08T21:37:55.002Z,20.73
2022-10-08T21:43:00.097Z,17.67
2022-10-08T21:48:03.878Z,10.55
2022-10-08T21:53:07.547Z,11.82
2022-10-08T21:58:12.599Z,9.48
2022-10-08T22:03:17.602Z,9.75
2022-10-08T22:08:22.160Z,11.40
2022-10-08T22:13:27.251Z,7.75
2022-10-08T22:18:33.565Z,13.85
2022-10-08T22:23:37.785Z,15.57
2022-10-08T22:28:43.561Z,10.88
2022-10-08T22:33:48.311Z,11.40
2022-10-08T22:38:52.852Z,14.75
2022-10-08T22:43:58.758Z,11.88
2022-10-08T22:49:03.990Z,13.18
2022-10-08T22:54:08.229Z,14.43
2022-10-08T22:59:13.328Z,9.77
2022-10-08T23:04:17.107Z,13.93
2022-10-08T23:09:20.968Z,16.80
2022-10-08T23:14:26.088Z,11.55
2022-10-08T23:19:29.778Z,10.98
2022-10-08T23:24:35.333Z,13.70
2022-10-08T23:29:40.388Z,16.77
2022-10-08T23:34:44.260Z,17.87
2022-10-08T23:39:47.991Z,20.75
2022-10-08T23:44:53.089Z,18.55
2022-10-08T23:49:56.791Z,13.35
2022-10-08T23:55:00.464Z,14.95
